Terminal Aerodrome Forecast
Issued by NWS La Crosse, WI

Home | Current Version | Previous Version | Text Only | Print | Product List | Glossary On
Versions: 1 2 3 4 5 6 7 8 9 10 11 12 13 14 15 16 17 18 19 20 21 22
000
FTUS43 KARX 152336
TAFRST
TAF
KRST 152336Z 1600/1624 VRB03KT P6SM BKN100
     FM160600 13016KT P6SM OVC070
     FM161000 15018G27KT P6SM OVC070
     FM161700 16024G31KT P6SM OVC120
     FM161900 17022G29KT 3SM -RA BR OVC050=

USA.gov is the U.S. government's official web portal to all federal, state and local government web resources and services.